首页
METAR-TAF:

METAR-TAF

机场 :

Mount Clemens, 密歇根州, 美国

纬度: 42-37N, 经度: 082-50W, 海拔: 177米

当前天气观测

该预报发布于1小时和9分钟前的17:56 UTC
风速15节,风向西,有时为21节阵风
温度 4°C
湿度 81%
气压 1013 hPa
能見度: 16.1公里
阴天层高于2500英尺

METAR: KMTC 181756Z 26015G21KT 10SM OVC025 04/01 A2992 RMK AO2A PK WND 25028/43 SLP142 T00410013 10046 20010 52031

时间: 14:05 (19:05 UTC)

预报

该预报发布于2小时和5分钟前的17:00 UTC
预报有效从18日的 17点(UTC)到 19日的 23点(UTC)
风速12节,风向西,有时为25节阵风
能见度10公里或以上
阴天层高于2000英尺
短暂存在
从 18日的 17点(UTC)到 18日的 21点(UTC)
风速15节,风向西转西南,有时为35节阵风
成为
从 19日的 01点(UTC)到 19日的 02点(UTC)
风速12节,风向西转西北
能见度10公里或以上
散云层高于2000英尺
成为
从 19日的 14点(UTC)到 19日的 15点(UTC)
风速10节,风向西北,有时为15节阵风
能见度10公里或以上
天空无云

TAF: KMTC 181700Z 1817/1923 26012G25KT 9999 OVC020 520054 QNH2989INS TEMPO 1817/1821 24015G35KT 530005 BECMG 1901/1902 29012KT 9999 SCT020 QNH3020INS BECMG 1914/1915 31010G15KT 9999 SKC QNH3043INS TX05/1820Z TNM05/1914Z

超过4000个机场的气象观测和天气预报(METAR&TAF报告)。

可查询的气象台以黄色和红色小点在地图上表示。

将鼠标移到小点上方,可查看气象台名称。

然后点击查看天气观测和预报。

如需切换地图:点击带黑十字的绿色按钮放大地图;点击带横线的绿色按钮缩小地图;或者点击绿色箭头查看邻近地区的地图。


METAR-TAF: